Time;durP1;ratioP1;P1;durP2;ratioP2;P2;SDS_P1;SDS_P2;PMS_P1;PMS_P2;Temp;Humidity;BMP_temperature;BMP_pressure;BME280_temperature;BME280_humidity;BME280_pressure;Samples;Min_cycle;Max_cycle;Signal;HPM_P1;HPM_P2
2022/12/23 00:02:28;;;;;;;23.80;17.20;;;;;;;6.00;94.62;99239.58;102041;1310;95518;-57
2022/12/23 00:05:08;;;;;;;21.20;15.80;;;;;;;6.02;94.49;99242.45;102041;1313;83226;-57
2022/12/23 00:07:43;;;;;;;21.90;16.40;;;;;;;6.04;94.77;99249.19;102090;1313;81356;-58
2022/12/23 00:10:19;;;;;;;22.40;15.80;;;;;;;6.05;94.61;99245.52;102037;1313;99145;-59
2022/12/23 00:16:00;;;;;;;22.60;16.20;;;;;;;6.05;94.58;99248.67;102082;1313;94522;-58
2022/12/23 00:18:44;;;;;;;20.80;16.00;;;;;;;6.05;94.59;99248.08;102137;1310;80764;-57
2022/12/23 00:21:25;;;;;;;23.60;15.90;;;;;;;6.07;94.71;99244.79;102137;1310;82920;-57
2022/12/23 00:24:04;;;;;;;22.30;16.10;;;;;;;6.10;94.85;99250.65;102125;1310;98441;-58
2022/12/23 00:26:44;;;;;;;21.30;15.60;;;;;;;6.09;94.85;99252.21;102102;1313;88801;-59
2022/12/23 00:29:29;;;;;;;23.40;15.90;;;;;;;6.09;94.80;99256.42;102041;1313;94653;-58
2022/12/23 00:32:08;;;;;;;24.00;15.00;;;;;;;6.09;94.98;99256.66;102057;1313;81566;-58
2022/12/23 00:34:47;;;;;;;21.20;15.10;;;;;;;6.11;94.92;99261.77;102059;1313;83124;-58
2022/12/23 00:37:23;;;;;;;23.80;16.00;;;;;;;6.11;94.97;99263.91;102043;1313;98022;-58
2022/12/23 00:43:01;;;;;;;21.80;16.00;;;;;;;6.16;94.91;99264.74;101747;1314;94990;-57
2022/12/23 00:45:46;;;;;;;23.10;15.90;;;;;;;6.18;94.88;99265.02;102043;1313;81154;-58
2022/12/23 00:51:25;;;;;;;;;;;;;;;6.17;94.86;99267.59;102025;1313;98603;-57
2022/12/23 00:54:05;;;;;;;26.70;17.50;;;;;;;6.19;95.02;99268.62;102003;1313;86577;-59
2022/12/23 00:56:44;;;;;;;26.90;17.50;;;;;;;6.19;95.00;99271.84;102102;1313;92673;-59
2022/12/23 00:59:27;;;;;;;24.50;16.90;;;;;;;6.19;95.05;99273.94;102079;1313;80465;-59
2022/12/23 01:07:55;;;;;;;28.40;17.30;;;;;;;6.21;95.24;99277.16;102096;1313;88599;-59
2022/12/23 01:10:36;;;;;;;25.00;17.50;;;;;;;6.15;95.30;99276.59;102047;1313;94990;-59
2022/12/23 01:13:15;;;;;;;24.90;17.30;;;;;;;6.20;95.52;99278.25;102085;1313;80776;-59
2022/12/23 01:16:01;;;;;;;29.00;19.20;;;;;;;6.19;95.27;99282.40;102060;1310;83063;-59
2022/12/23 01:18:40;;;;;;;28.80;18.20;;;;;;;6.19;95.43;99283.42;102042;1313;98338;-58
2022/12/23 01:21:19;;;;;;;28.70;19.60;;;;;;;6.21;95.41;99284.20;102075;1310;89369;-57
2022/12/23 01:24:01;;;;;;;28.10;18.60;;;;;;;6.22;95.39;99287.85;102016;1313;94014;-56
2022/12/23 01:26:47;;;;;;;26.50;17.30;;;;;;;6.22;95.49;99291.44;102047;1313;80949;-57
2022/12/23 01:29:32;;;;;;;27.60;17.80;;;;;;;6.24;95.47;99291.20;102049;1311;80355;-58
2022/12/23 01:32:09;;;;;;;28.10;18.10;;;;;;;6.25;95.47;99294.14;102034;1309;98157;-57
2022/12/23 01:34:51;;;;;;;29.20;18.90;;;;;;;6.29;95.52;99294.03;102054;1309;88744;-57
2022/12/23 01:37:29;;;;;;;26.90;18.10;;;;;;;6.29;95.55;99289.33;102038;1310;95963;-57
2022/12/23 01:40:09;;;;;;;27.20;18.20;;;;;;;6.32;95.49;99295.54;102090;1310;80769;-57
2022/12/23 01:42:48;;;;;;;28.70;18.90;;;;;;;6.31;95.49;99292.27;102063;1309;82303;-57
2022/12/23 01:45:30;;;;;;;28.20;19.00;;;;;;;6.34;95.62;99291.35;102051;1313;99134;-57
2022/12/23 01:48:13;;;;;;;29.30;19.30;;;;;;;6.36;95.62;99290.55;102110;1310;89168;-57
2022/12/23 01:50:56;;;;;;;30.70;19.70;;;;;;;6.37;95.72;99291.15;102100;1310;96038;-57
2022/12/23 01:53:44;;;;;;;32.40;20.80;;;;;;;6.41;95.59;99297.70;102130;1313;80613;-57
2022/12/23 01:56:30;;;;;;;30.90;20.70;;;;;;;6.39;95.57;99293.98;102083;1310;83047;-58
2022/12/23 01:59:08;;;;;;;29.00;19.80;;;;;;;6.41;95.67;99294.79;101661;1313;643106;-57
2022/12/23 02:04:50;;;;;;;31.20;19.90;;;;;;;6.42;95.89;99301.67;102069;1310;95731;-57
2022/12/23 02:10:33;;;;;;;30.60;19.90;;;;;;;6.40;95.81;99304.80;102104;1310;83642;-56
2022/12/23 02:13:14;;;;;;;32.20;20.40;;;;;;;6.41;95.88;99311.63;102070;1313;98755;-57
2022/12/23 02:16:18;;;;;;;34.20;21.90;;;;;;;6.46;95.86;99313.90;102067;1313;86567;-56
2022/12/23 02:19:27;;;;;;;32.50;19.80;;;;;;;6.46;95.87;99316.75;102027;1313;95437;-57
2022/12/23 02:22:23;;;;;;;31.00;20.10;;;;;;;6.48;96.01;99309.48;102040;1313;81235;-57
2022/12/23 02:25:37;;;;;;;31.40;20.10;;;;;;;6.50;95.99;99311.89;102060;1313;83153;-58
2022/12/23 02:28:55;;;;;;;32.90;20.60;;;;;;;6.51;96.04;99312.10;102055;1313;99066;-57
2022/12/23 02:31:43;;;;;;;33.40;20.50;;;;;;;6.54;96.07;99313.70;102025;1310;88278;-57
2022/12/23 02:34:34;;;;;;;30.70;19.50;;;;;;;6.53;96.02;99322.27;102075;1313;93682;-60
2022/12/23 02:37:24;;;;;;;34.40;21.70;;;;;;;6.55;95.95;99327.57;102094;1309;80562;-58
2022/12/23 02:40:11;;;;;;;35.30;21.20;;;;;;;6.58;95.99;99324.72;102029;1313;80649;-58
2022/12/23 02:42:59;;;;;;;32.00;19.40;;;;;;;6.59;95.92;99329.61;102108;1314;97198;-57
2022/12/23 02:45:43;;;;;;;38.10;21.90;;;;;;;6.64;96.03;99332.27;102092;1310;88959;-56
2022/12/23 02:48:28;;;;;;;34.10;20.70;;;;;;;6.62;96.01;99326.98;102114;1310;95616;-57
2022/12/23 02:51:12;;;;;;;32.20;19.80;;;;;;;6.62;96.09;99330.30;102147;1310;79348;-57
2022/12/23 02:53:55;;;;;;;33.80;20.80;;;;;;;6.63;96.04;99335.79;102155;1313;82600;-58
2022/12/23 02:56:37;;;;;;;29.60;19.60;;;;;;;6.62;95.95;99339.66;102125;1313;99445;-57
2022/12/23 02:59:18;;;;;;;31.50;19.70;;;;;;;6.63;96.03;99340.91;102120;1313;88829;-57
2022/12/23 03:02:04;;;;;;;29.80;18.10;;;;;;;6.62;96.12;99344.73;102110;1310;93622;-58
2022/12/23 03:04:45;;;;;;;26.00;16.80;;;;;;;6.64;96.05;99343.20;102072;1310;81701;-58
2022/12/23 03:07:30;;;;;;;29.20;16.70;;;;;;;6.66;96.06;99344.52;102074;1313;81697;-57
2022/12/23 03:10:23;;;;;;;27.80;17.40;;;;;;;6.64;96.11;99348.45;102017;1313;98492;-58
2022/12/23 03:13:12;;;;;;;28.00;16.50;;;;;;;6.66;96.08;99347.02;102049;1310;89311;-58
2022/12/23 03:16:02;;;;;;;24.10;16.10;;;;;;;6.68;96.04;99343.73;101987;1313;93375;-58
2022/12/23 03:18:57;;;;;;;25.10;16.80;;;;;;;6.71;96.08;99346.70;102039;1309;80145;-57
2022/12/23 03:21:46;;;;;;;23.50;16.10;;;;;;;6.73;96.00;99341.60;102042;1311;80005;-56
2022/12/23 03:24:33;;;;;;;27.80;17.60;;;;;;;6.75;95.90;99338.98;102056;1313;97509;-58
2022/12/23 03:27:24;;;;;;;28.40;17.20;;;;;;;6.76;96.02;99343.94;102033;1311;88598;-58
2022/12/23 03:30:08;;;;;;;26.90;17.30;;;;;;;6.78;96.07;99341.73;102030;1313;94260;-58
2022/12/23 03:32:53;;;;;;;27.90;17.30;;;;;;;6.76;95.85;99339.65;102084;1313;80728;-57
2022/12/23 03:35:34;;;;;;;26.90;17.70;;;;;;;6.76;95.92;99338.70;102129;1310;83038;-57
2022/12/23 03:38:14;;;;;;;23.60;15.30;;;;;;;6.77;95.95;99344.30;102146;1313;98702;-58
2022/12/23 03:40:56;;;;;;;23.30;15.60;;;;;;;6.77;95.89;99350.80;102148;1310;88107;-58
2022/12/23 03:43:37;;;;;;;22.70;15.20;;;;;;;6.77;95.80;99354.20;102054;1310;95184;-57
2022/12/23 03:46:22;;;;;;;23.10;15.20;;;;;;;6.76;95.91;99353.27;102073;1313;82429;-58
2022/12/23 03:49:02;;;;;;;18.40;13.10;;;;;;;6.73;95.93;99351.43;102101;1313;83453;-57
2022/12/23 03:51:45;;;;;;;20.70;13.30;;;;;;;6.77;95.94;99353.45;102116;1313;98955;-57
2022/12/23 03:54:32;;;;;;;17.70;13.30;;;;;;;6.77;95.91;99357.21;102093;1314;88934;-58
2022/12/23 03:57:11;;;;;;;;;;;;;;;6.78;95.83;99358.21;101963;1313;95374;-58
2022/12/23 03:59:50;;;;;;;20.10;13.70;;;;;;;6.78;95.73;99357.10;102057;1310;81377;-57
2022/12/23 04:02:34;;;;;;;18.80;13.30;;;;;;;6.74;95.74;99358.30;102084;1311;80173;-57
2022/12/23 04:05:24;;;;;;;20.30;13.70;;;;;;;6.67;95.58;99356.36;102049;1313;98545;-56
2022/12/23 04:08:10;;;;;;;18.80;13.40;;;;;;;6.61;95.35;99353.89;102066;1311;88019;-57
2022/12/23 04:10:52;;;;;;;19.40;13.50;;;;;;;6.49;95.22;99354.55;102065;1309;95011;-57
2022/12/23 04:13:33;;;;;;;16.00;11.80;;;;;;;6.44;95.20;99353.83;102057;1309;80513;-57
2022/12/23 04:16:12;;;;;;;16.60;11.90;;;;;;;6.34;95.15;99350.56;102014;1313;82731;-55
2022/12/23 04:18:54;;;;;;;16.40;11.80;;;;;;;6.28;95.17;99353.06;102069;1310;99228;-57
2022/12/23 04:21:39;;;;;;;16.80;12.00;;;;;;;6.20;95.14;99354.81;102061;1310;87794;-59
2022/12/23 04:24:16;;;;;;;14.80;10.80;;;;;;;6.14;95.11;99355.52;102033;1313;94847;-56
2022/12/23 04:26:58;;;;;;;17.40;11.60;;;;;;;6.08;95.08;99354.36;102077;1313;81735;-56
2022/12/23 04:29:39;;;;;;;14.60;11.10;;;;;;;6.03;95.02;99354.96;102110;1309;79969;-56
2022/12/23 04:32:27;;;;;;;17.70;12.20;;;;;;;5.98;95.05;99361.15;102091;1313;98705;-57
2022/12/23 04:35:13;;;;;;;17.00;11.40;;;;;;;5.97;95.11;99367.52;102072;1313;89031;-57
2022/12/23 04:37:53;;;;;;;15.70;11.70;;;;;;;5.99;95.10;99362.85;102109;1311;94718;-57
2022/12/23 04:40:37;;;;;;;14.60;10.70;;;;;;;5.94;95.01;99368.33;102132;1313;80707;-57
2022/12/23 04:43:16;;;;;;;18.50;12.80;;;;;;;5.95;95.12;99376.08;102099;1309;82653;-57
2022/12/23 04:45:53;;;;;;;16.90;11.80;;;;;;;5.97;95.15;99373.55;102094;1310;98593;-57
2022/12/23 04:48:38;;;;;;;18.20;13.70;;;;;;;5.94;95.05;99371.77;102081;1313;88671;-58
2022/12/23 04:51:23;;;;;;;18.10;12.20;;;;;;;5.96;95.12;99368.63;102051;1313;94313;-56
2022/12/23 04:54:05;;;;;;;18.10;14.20;;;;;;;5.91;94.98;99363.91;102062;1313;81213;-56
2022/12/23 04:56:47;;;;;;;21.60;13.90;;;;;;;5.85;95.00;99367.64;102036;1310;81314;-56
2022/12/23 04:59:32;;;;;;;18.00;13.30;;;;;;;5.80;94.97;99369.15;102026;1313;97487;-56
2022/12/23 05:02:13;;;;;;;18.80;13.80;;;;;;;5.75;94.92;99374.04;102042;1313;88167;-57
2022/12/23 05:04:50;;;;;;;17.00;12.90;;;;;;;5.71;94.99;99378.25;101983;1310;95457;-57
2022/12/23 05:07:30;;;;;;;19.60;13.20;;;;;;;5.72;94.91;99380.19;102049;1310;82420;-58
2022/12/23 05:10:08;;;;;;;19.40;13.90;;;;;;;5.70;94.94;99383.02;102036;1313;80855;-58
2022/12/23 05:12:48;;;;;;;19.20;14.20;;;;;;;5.74;95.08;99392.23;102034;1310;98144;-58
2022/12/23 05:15:33;;;;;;;23.20;14.90;;;;;;;5.72;95.06;99393.56;102059;1313;86935;-58
2022/12/23 05:18:16;;;;;;;22.10;15.00;;;;;;;5.64;94.88;99397.68;102092;1309;94886;-59
2022/12/23 05:20:58;;;;;;;20.70;15.00;;;;;;;5.61;94.98;99393.23;102066;1310;82860;-59
2022/12/23 05:23:42;;;;;;;21.90;14.70;;;;;;;5.63;95.13;99392.27;102095;1309;81729;-59
2022/12/23 05:26:28;;;;;;;19.10;14.10;;;;;;;5.63;95.06;99392.56;102062;1309;99068;-58
2022/12/23 05:29:08;;;;;;;23.00;15.10;;;;;;;5.65;95.02;99390.32;102064;1313;89139;-57
2022/12/23 05:31:50;;;;;;;20.60;14.90;;;;;;;5.68;95.08;99390.13;102067;1313;95196;-57
2022/12/23 05:34:33;;;;;;;19.80;14.10;;;;;;;5.69;95.16;99394.61;102060;1310;81606;-57
2022/12/23 05:37:10;;;;;;;21.10;15.10;;;;;;;5.71;95.16;99397.59;102078;1310;83372;-57
2022/12/23 05:39:49;;;;;;;20.60;14.40;;;;;;;5.73;95.20;99396.96;102027;1310;98548;-57
2022/12/23 05:42:33;;;;;;;21.30;14.20;;;;;;;5.76;95.12;99396.09;102050;1313;88154;-58
2022/12/23 05:45:09;;;;;;;20.90;15.20;;;;;;;5.75;94.98;99393.20;102057;1310;94140;-58
2022/12/23 05:47:44;;;;;;;19.10;13.50;;;;;;;5.71;94.97;99400.50;102061;1310;80551;-57
2022/12/23 05:50:23;;;;;;;20.20;14.90;;;;;;;5.62;94.70;99404.01;102074;1310;83482;-58
2022/12/23 05:53:03;;;;;;;17.70;13.60;;;;;;;5.64;95.05;99409.05;101958;1313;97907;-58
2022/12/23 05:55:51;;;;;;;23.10;16.70;;;;;;;5.65;95.13;99408.47;102082;1313;89396;-57
2022/12/23 05:58:27;;;;;;;19.90;15.10;;;;;;;5.69;95.09;99402.95;102060;1309;94688;-58
2022/12/23 06:01:13;;;;;;;19.70;14.30;;;;;;;5.69;95.04;99406.79;102111;1309;81377;-59
2022/12/23 06:04:03;;;;;;;21.30;15.50;;;;;;;5.67;95.03;99410.39;102096;1310;83417;-58
2022/12/23 06:06:47;;;;;;;20.60;14.80;;;;;;;5.67;95.05;99411.27;102147;1313;99517;-59
2022/12/23 06:09:32;;;;;;;21.20;15.80;;;;;;;5.72;95.07;99412.33;102102;1310;87794;-58
2022/12/23 06:12:09;;;;;;;22.10;15.90;;;;;;;5.68;94.82;99407.10;102118;1310;94222;-58
2022/12/23 06:14:46;;;;;;;22.80;16.50;;;;;;;5.58;94.86;99408.42;102043;1313;80328;-58
2022/12/23 06:17:26;;;;;;;23.10;16.60;;;;;;;5.48;94.61;99416.09;102063;1313;82761;-56
2022/12/23 06:20:09;;;;;;;23.00;15.10;;;;;;;5.32;94.79;99421.38;102018;1309;98655;-57
2022/12/23 06:22:51;;;;;;;22.80;16.90;;;;;;;5.21;94.90;99433.51;102061;1313;86981;-58
2022/12/23 06:25:33;;;;;;;23.50;16.50;;;;;;;5.21;95.08;99434.23;102026;1313;94647;-57
2022/12/23 06:28:14;;;;;;;22.50;16.60;;;;;;;5.19;94.98;99435.16;102054;1313;81722;-57
2022/12/23 06:30:54;;;;;;;23.10;16.70;;;;;;;5.25;95.21;99433.74;102051;1313;80033;-57
2022/12/23 06:33:31;;;;;;;21.10;16.00;;;;;;;5.30;95.25;99439.44;102061;1310;98582;-58
2022/12/23 06:36:10;;;;;;;21.90;15.60;;;;;;;5.32;95.28;99442.69;102045;1313;88718;-57
2022/12/23 06:38:52;;;;;;;21.70;16.50;;;;;;;5.34;95.32;99439.44;102070;1313;92408;-59
2022/12/23 06:41:32;;;;;;;22.10;16.40;;;;;;;5.39;95.30;99445.77;102079;1312;81766;-58
2022/12/23 06:44:09;;;;;;;21.30;16.40;;;;;;;5.40;95.22;99445.59;102109;1310;83134;-57
2022/12/23 06:46:46;;;;;;;20.90;17.00;;;;;;;5.38;95.06;99450.13;102082;1310;97014;-57
2022/12/23 06:49:27;;;;;;;22.50;17.10;;;;;;;5.42;95.11;99450.76;102093;1310;88041;-58
2022/12/23 06:52:05;;;;;;;23.10;17.10;;;;;;;5.43;95.09;99448.61;102095;1313;93543;-58
2022/12/23 06:54:41;;;;;;;25.20;19.00;;;;;;;5.40;95.08;99453.26;102120;1310;78908;-58
2022/12/23 06:57:21;;;;;;;23.40;17.70;;;;;;;5.38;95.10;99450.28;102130;1310;82155;-58
2022/12/23 06:59:58;;;;;;;24.30;17.50;;;;;;;5.37;95.17;99449.48;102082;1309;98421;-58
2022/12/23 07:02:39;;;;;;;23.20;16.80;;;;;;;5.39;95.09;99451.17;102065;1313;88763;-57
2022/12/23 07:05:24;;;;;;;22.00;16.90;;;;;;;5.44;95.13;99461.06;102057;1314;93913;-58
2022/12/23 07:08:06;;;;;;;23.30;17.50;;;;;;;5.45;95.25;99459.70;102058;1310;81590;-58
2022/12/23 07:10:50;;;;;;;24.50;16.90;;;;;;;5.45;95.19;99462.64;102052;1313;81766;-57
2022/12/23 07:13:32;;;;;;;22.30;16.90;;;;;;;5.52;95.23;99467.02;102074;1313;97963;-58
2022/12/23 07:16:13;;;;;;;23.90;17.80;;;;;;;5.54;95.33;99469.77;102035;1313;89122;-58
2022/12/23 07:18:53;;;;;;;22.60;16.90;;;;;;;5.62;95.37;99468.37;102076;1313;94204;-58
2022/12/23 07:21:37;;;;;;;22.10;16.80;;;;;;;5.64;95.21;99471.17;102033;1313;82770;-56
2022/12/23 07:24:17;;;;;;;20.70;15.50;;;;;;;5.69;95.28;99466.77;102068;1313;83219;-58
2022/12/23 07:26:55;;;;;;;20.60;15.70;;;;;;;5.77;95.45;99466.91;102078;1313;99599;-60
2022/12/23 07:29:34;;;;;;;18.80;14.60;;;;;;;5.81;95.28;99464.81;102093;1310;87473;-60
2022/12/23 07:32:18;;;;;;;21.40;16.70;;;;;;;5.85;95.35;99468.65;102066;1310;94312;-60
2022/12/23 07:34:55;;;;;;;21.10;16.60;;;;;;;5.92;95.20;99465.31;102122;1313;80659;-60
2022/12/23 07:37:34;;;;;;;21.90;17.10;;;;;;;5.95;95.37;99466.67;102104;1310;82914;-59
2022/12/23 07:40:12;;;;;;;21.30;16.60;;;;;;;5.94;95.06;99460.90;102043;1313;99451;-60
2022/12/23 07:42:56;;;;;;;21.50;16.20;;;;;;;6.00;95.12;99456.86;102076;1313;89101;-62
2022/12/23 07:45:34;;;;;;;18.60;15.90;;;;;;;5.96;94.92;99447.98;102032;1313;95917;-65
2022/12/23 07:48:21;;;;;;;22.70;16.60;;;;;;;5.96;94.89;99443.19;102078;1313;81292;-64
2022/12/23 07:51:04;;;;;;;21.90;15.70;;;;;;;5.97;94.74;99449.84;102047;1313;80887;-64
2022/12/23 07:53:46;;;;;;;19.80;14.50;;;;;;;5.88;94.80;99453.79;102092;1313;95645;-65
2022/12/23 07:56:27;;;;;;;19.30;15.70;;;;;;;5.90;94.86;99455.56;102019;1310;87497;-63
2022/12/23 07:59:04;;;;;;;19.60;14.10;;;;;;;5.94;94.83;99465.60;102054;1310;93430;-64
2022/12/23 08:01:41;;;;;;;20.20;14.70;;;;;;;5.96;94.82;99475.19;102010;1313;81441;-64
2022/12/23 08:04:24;;;;;;;20.60;15.80;;;;;;;5.92;94.89;99480.79;102072;1309;82345;-64
2022/12/23 08:07:02;;;;;;;20.30;15.40;;;;;;;5.91;94.88;99479.33;102048;1313;97560;-64
2022/12/23 08:09:48;;;;;;;22.70;15.40;;;;;;;5.96;94.86;99469.45;102017;1313;89106;-65
2022/12/23 08:12:25;;;;;;;19.40;15.20;;;;;;;6.02;94.86;99469.88;102049;1310;96128;-65
2022/12/23 08:15:03;;;;;;;19.70;15.60;;;;;;;6.06;94.81;99470.73;102110;1313;81731;-65
2022/12/23 08:17:43;;;;;;;19.20;13.70;;;;;;;6.03;95.06;99471.63;102118;1310;82135;-62
2022/12/23 08:20:18;;;;;;;20.50;16.70;;;;;;;6.04;95.10;99470.96;102064;1313;99437;-62
2022/12/23 08:22:57;;;;;;;20.00;15.50;;;;;;;6.15;95.05;99467.32;102124;1313;86540;-63
2022/12/23 08:25:35;;;;;;;21.10;16.20;;;;;;;6.22;94.95;99466.44;102098;1309;93588;-64
2022/12/23 08:28:10;;;;;;;20.90;16.00;;;;;;;6.30;94.90;99462.96;102049;1314;81577;-64
2022/12/23 08:30:45;;;;;;;20.00;15.80;;;;;;;6.35;95.01;99465.35;102057;1309;80840;-64
2022/12/23 08:33:25;;;;;;;21.30;15.90;;;;;;;6.43;94.83;99462.85;102095;1313;98480;-64
2022/12/23 08:36:02;;;;;;;21.30;16.50;;;;;;;6.50;94.81;99461.17;102068;1313;87783;-64
2022/12/23 08:38:43;;;;;;;21.30;16.00;;;;;;;6.53;94.72;99455.90;102061;1313;95007;-65
2022/12/23 08:41:25;;;;;;;20.20;16.20;;;;;;;6.56;94.68;99451.59;102051;1313;78095;-65
2022/12/23 08:44:00;;;;;;;22.10;16.30;;;;;;;6.63;94.53;99448.66;102052;1313;83323;-65
2022/12/23 08:46:39;;;;;;;21.20;16.60;;;;;;;6.59;94.26;99446.09;102077;1310;98110;-65
2022/12/23 08:49:21;;;;;;;23.30;16.30;;;;;;;6.52;94.34;99450.13;102071;1313;89192;-63
2022/12/23 08:52:07;;;;;;;24.80;16.10;;;;;;;6.58;94.38;99448.02;101992;1313;93240;-64
2022/12/23 08:54:49;;;;;;;20.60;15.50;;;;;;;6.60;94.39;99448.82;101916;1313;80386;-65
2022/12/23 08:57:31;;;;;;;20.30;16.20;;;;;;;6.62;94.40;99448.04;102056;1310;81416;-64
2022/12/23 09:00:09;;;;;;;20.20;16.50;;;;;;;6.65;94.54;99440.60;102017;1313;95871;-64
2022/12/23 09:02:56;;;;;;;20.20;15.90;;;;;;;6.73;94.54;99436.85;102080;1310;87159;-63
2022/12/23 09:05:41;;;;;;;18.50;15.40;;;;;;;6.80;94.49;99430.17;102061;1310;95003;-64
2022/12/23 09:08:22;;;;;;;21.10;16.30;;;;;;;6.88;94.42;99428.78;102035;1313;82784;-63
2022/12/23 09:11:11;;;;;;;22.60;16.70;;;;;;;7.00;94.30;99427.39;101959;1313;83157;-63
2022/12/23 09:13:48;;;;;;;19.60;15.50;;;;;;;6.99;94.20;99424.23;102022;1310;96786;-64
2022/12/23 09:16:28;;;;;;;21.30;16.30;;;;;;;7.10;94.04;99425.75;102054;1313;89422;-64
2022/12/23 09:19:08;;;;;;;22.20;16.40;;;;;;;7.13;93.92;99425.33;102025;1313;94737;-65
2022/12/23 09:21:44;;;;;;;23.00;16.90;;;;;;;7.16;94.03;99419.70;102030;1310;81820;-64
2022/12/23 09:24:24;;;;;;;21.20;16.00;;;;;;;7.18;93.77;99420.45;101989;1313;82464;-65
2022/12/23 09:27:09;;;;;;;20.50;16.20;;;;;;;7.21;93.68;99413.96;102010;1310;96846;-66
2022/12/23 09:29:56;;;;;;;23.30;17.00;;;;;;;7.18;93.61;99414.84;102001;1309;88892;-66
2022/12/23 09:32:37;;;;;;;24.30;16.60;;;;;;;7.15;93.77;99408.75;102007;1313;94168;-63
2022/12/23 09:35:19;;;;;;;21.90;16.80;;;;;;;7.10;93.78;99405.93;101987;1310;80506;-63
2022/12/23 09:37:57;;;;;;;20.10;15.60;;;;;;;7.08;93.87;99402.93;102014;1313;82654;-65
2022/12/23 09:40:37;;;;;;;23.90;18.00;;;;;;;7.13;93.77;99397.23;101997;1313;98638;-67
2022/12/23 09:43:28;;;;;;;23.50;17.00;;;;;;;7.15;93.48;99394.95;102046;1313;87203;-65
2022/12/23 09:46:14;;;;;;;25.60;18.70;;;;;;;7.08;93.48;99395.90;102003;1313;93749;-63
2022/12/23 09:49:01;;;;;;;24.40;17.40;;;;;;;7.08;93.40;99392.27;101940;1315;81313;-64
2022/12/23 09:51:39;;;;;;;25.30;18.80;;;;;;;7.10;93.29;99391.91;102016;1313;82892;-62
2022/12/23 09:54:22;;;;;;;26.50;17.70;;;;;;;7.14;93.20;99390.23;102025;1310;98004;-62
2022/12/23 09:57:18;;;;;;;25.00;18.10;;;;;;;7.10;93.22;99388.70;101680;1313;476118;-66
2022/12/23 10:00:07;;;;;;;25.30;18.00;;;;;;;7.05;93.45;99385.70;102035;1310;93092;-64
2022/12/23 10:03:08;;;;;;;25.50;18.80;;;;;;;7.14;93.31;99382.61;101991;1313;83160;-67
2022/12/23 10:06:00;;;;;;;23.70;17.20;;;;;;;7.11;93.34;99376.52;102030;1313;82723;-65
2022/12/23 10:08:46;;;;;;;24.30;19.00;;;;;;;7.03;93.37;99375.73;102017;1313;99149;-65
2022/12/23 10:11:36;;;;;;;27.00;17.70;;;;;;;7.03;93.35;99376.60;102013;1310;89213;-64
2022/12/23 10:14:22;;;;;;;25.00;17.20;;;;;;;7.01;93.54;99370.51;101913;1315;96225;-63
2022/12/23 10:17:12;;;;;;;22.00;17.00;;;;;;;6.99;93.56;99366.86;101986;1310;80804;-64
2022/12/23 10:19:54;;;;;;;24.10;17.10;;;;;;;7.04;93.32;99364.35;101979;1313;83352;-62
2022/12/23 10:22:37;;;;;;;22.00;16.70;;;;;;;7.07;93.17;99363.09;102043;1310;98263;-61
2022/12/23 10:25:28;;;;;;;26.00;18.50;;;;;;;6.99;93.41;99361.94;101997;1313;88733;-60
2022/12/23 10:28:09;;;;;;;43.90;30.50;;;;;;;6.99;93.38;99358.05;102015;1313;93971;-62
2022/12/23 10:31:03;;;;;;;31.30;21.60;;;;;;;6.93;93.47;99356.02;102029;1310;82126;-63
2022/12/23 10:33:53;;;;;;;26.80;19.40;;;;;;;6.91;93.35;99356.62;101989;1313;82743;-62
2022/12/23 10:36:44;;;;;;;25.90;18.20;;;;;;;6.94;93.47;99353.39;101982;1314;97565;-62
2022/12/23 10:39:38;;;;;;;25.50;18.80;;;;;;;6.93;93.44;99349.70;102014;1313;86483;-61
2022/12/23 10:42:28;;;;;;;25.50;18.80;;;;;;;6.96;93.43;99344.40;102050;1310;93882;-63
2022/12/23 10:45:31;;;;;;;25.80;18.60;;;;;;;6.93;93.52;99339.73;102052;1313;81402;-65
2022/12/23 10:48:25;;;;;;;23.40;17.40;;;;;;;6.93;93.55;99343.33;101971;1313;84025;-62
2022/12/23 10:51:14;;;;;;;24.80;17.80;;;;;;;6.95;93.56;99347.54;102058;1313;98776;-67
2022/12/23 10:53:59;;;;;;;27.00;18.90;;;;;;;6.93;93.61;99345.11;102073;1313;87886;-67
2022/12/23 10:56:40;;;;;;;27.50;19.10;;;;;;;7.00;93.63;99342.79;102046;1313;94983;-67
2022/12/23 10:59:23;;;;;;;25.20;18.10;;;;;;;7.01;93.64;99339.77;102036;1313;81356;-64
2022/12/23 11:02:19;;;;;;;27.30;19.20;;;;;;;7.02;93.65;99331.61;101927;1311;82902;-65
2022/12/23 11:05:12;;;;;;;25.70;17.80;;;;;;;7.07;93.67;99329.63;102046;1311;97676;-65
2022/12/23 11:07:49;;;;;;;24.80;18.20;;;;;;;7.06;93.54;99321.65;102035;1313;88808;-63
2022/12/23 11:10:33;;;;;;;25.80;18.10;;;;;;;7.02;93.47;99318.19;101961;1313;94982;-66
2022/12/23 11:13:26;;;;;;;27.70;17.80;;;;;;;7.00;93.46;99312.95;101961;1310;82387;-66
2022/12/23 11:16:19;;;;;;;26.50;18.80;;;;;;;7.04;93.53;99306.27;102003;1311;83114;-63
2022/12/23 11:19:01;;;;;;;24.60;17.20;;;;;;;7.02;93.45;99302.41;101997;1308;96263;-63
2022/12/23 11:21:40;;;;;;;24.60;17.60;;;;;;;6.97;93.62;99298.11;102004;1313;89182;-59
2022/12/23 11:24:22;;;;;;;24.20;17.60;;;;;;;6.94;93.49;99297.92;101999;1310;95955;-60
2022/12/23 11:27:06;;;;;;;25.90;18.00;;;;;;;6.96;93.46;99290.95;101984;1310;81797;-61
2022/12/23 11:29:48;;;;;;;26.30;18.10;;;;;;;6.92;93.45;99287.78;102006;1310;82999;-62
2022/12/23 11:32:34;;;;;;;26.80;17.80;;;;;;;6.97;93.42;99285.09;102015;1313;99196;-66
2022/12/23 11:35:26;;;;;;;26.70;19.30;;;;;;;6.94;93.35;99277.75;102058;1314;89141;-65
2022/12/23 11:38:15;;;;;;;27.00;18.70;;;;;;;6.90;93.25;99273.30;102011;1310;94097;-67
2022/12/23 11:40:50;;;;;;;27.20;19.00;;;;;;;6.89;93.34;99273.41;102050;1313;81249;-66
2022/12/23 11:43:32;;;;;;;26.00;18.50;;;;;;;6.81;93.38;99272.44;102055;1310;80778;-66
2022/12/23 11:46:34;;;;;;;26.80;18.00;;;;;;;6.85;93.46;99276.73;102063;1313;98867;-65
2022/12/23 11:49:18;;;;;;;25.00;18.00;;;;;;;6.86;93.42;99271.48;102017;1313;89351;-66
2022/12/23 11:52:13;;;;;;;25.20;18.80;;;;;;;6.88;93.50;99273.70;102014;1313;93355;-65
2022/12/23 11:55:01;;;;;;;26.60;18.70;;;;;;;6.82;93.47;99272.70;101958;1313;81826;-66
2022/12/23 11:57:47;;;;;;;27.00;19.10;;;;;;;6.85;93.57;99267.81;102029;1311;82185;-66
2022/12/23 12:00:27;;;;;;;24.90;18.10;;;;;;;6.87;93.55;99262.86;102002;1311;97824;-66
2022/12/23 12:03:16;;;;;;;25.40;18.60;;;;;;;6.88;93.41;99261.15;102021;1315;87404;-64
2022/12/23 12:06:03;;;;;;;27.70;19.80;;;;;;;6.86;93.46;99259.05;102010;1310;95275;-66
2022/12/23 12:08:38;;;;;;;;;;;;;;;6.88;93.50;99258.05;102058;1313;82297;-64
2022/12/23 12:11:22;;;;;;;30.60;18.70;;;;;;;6.82;93.53;99253.30;102021;1310;82118;-65
2022/12/23 12:14:06;;;;;;;28.70;19.30;;;;;;;6.81;93.45;99249.35;102038;1313;96539;-66
2022/12/23 12:16:58;;;;;;;25.90;19.00;;;;;;;6.81;93.53;99246.97;102022;1313;88175;-65
2022/12/23 12:19:40;;;;;;;25.00;18.80;;;;;;;6.79;93.62;99243.64;102052;1310;94619;-70
2022/12/23 12:22:34;;;;;;;27.90;19.70;;;;;;;6.79;93.55;99239.30;101990;1310;81276;-66
2022/12/23 12:25:26;;;;;;;27.30;19.40;;;;;;;6.81;93.54;99239.65;102096;1310;80131;-64
2022/12/23 12:28:13;;;;;;;27.40;19.80;;;;;;;6.76;93.57;99243.35;102056;1313;98708;-65
2022/12/23 12:30:58;;;;;;;28.90;20.80;;;;;;;6.71;93.67;99241.47;102043;1313;88914;-67
2022/12/23 12:33:48;;;;;;;28.40;20.50;;;;;;;6.71;93.69;99242.08;102013;1310;93705;-67
2022/12/23 12:36:37;;;;;;;28.20;19.10;;;;;;;6.70;93.56;99239.46;102031;1313;81388;-68
2022/12/23 12:39:25;;;;;;;27.70;18.90;;;;;;;6.67;93.54;99242.90;102048;1313;83058;-63
2022/12/23 12:42:22;;;;;;;27.00;19.70;;;;;;;6.65;93.60;99241.90;101945;1314;98361;-63
2022/12/23 12:45:13;;;;;;;27.40;19.80;;;;;;;6.62;93.87;99234.68;102061;1310;86620;-62
2022/12/23 12:48:05;;;;;;;28.70;20.20;;;;;;;6.67;93.82;99232.88;101972;1314;96786;-62
2022/12/23 12:51:04;;;;;;;31.20;21.60;;;;;;;6.72;93.72;99236.60;102008;1310;81850;-62
2022/12/23 12:53:49;;;;;;;27.60;19.90;;;;;;;6.64;93.80;99234.38;101931;1315;82054;-62
2022/12/23 12:56:31;;;;;;;;;;;;;;;6.66;93.89;99236.61;102038;1310;97490;-63